sensor_id;sensor_type;location;lat;lon;timestamp;pressure;altitude;pressure_sealevel;temperature;humidity
24558;BME280;12726;49.148;8.582;2023-07-31T00:01:52;100366.84;;;16.67;78.85
24558;BME280;12726;49.148;8.582;2023-07-31T00:04:37;100368.31;;;16.58;79.04
24558;BME280;12726;49.148;8.582;2023-07-31T00:07:22;100364.72;;;16.53;79.36
24558;BME280;12726;49.148;8.582;2023-07-31T00:10:08;100363.66;;;16.54;79.44
24558;BME280;12726;49.148;8.582;2023-07-31T00:12:53;100364.91;;;16.46;80.31
24558;BME280;12726;49.148;8.582;2023-07-31T00:15:40;100365.59;;;16.36;80.62
24558;BME280;12726;49.148;8.582;2023-07-31T00:18:25;100373.09;;;16.29;81.09
24558;BME280;12726;49.148;8.582;2023-07-31T00:21:11;100369.25;;;16.25;81.55
24558;BME280;12726;49.148;8.582;2023-07-31T00:23:56;100362.41;;;16.23;82.53
24558;BME280;12726;49.148;8.582;2023-07-31T00:26:41;100351.53;;;16.23;83.02
24558;BME280;12726;49.148;8.582;2023-07-31T00:29:27;100346.94;;;16.23;82.98
24558;BME280;12726;49.148;8.582;2023-07-31T00:32:14;100352.69;;;16.27;82.52
24558;BME280;12726;49.148;8.582;2023-07-31T00:34:59;100347.00;;;16.28;81.89
24558;BME280;12726;49.148;8.582;2023-07-31T00:37:44;100350.28;;;16.30;81.87
24558;BME280;12726;49.148;8.582;2023-07-31T00:40:34;100347.81;;;16.29;82.34
24558;BME280;12726;49.148;8.582;2023-07-31T00:43:19;100350.03;;;16.32;82.04
24558;BME280;12726;49.148;8.582;2023-07-31T00:46:04;100351.19;;;16.36;82.01
24558;BME280;12726;49.148;8.582;2023-07-31T00:48:51;100344.91;;;16.35;82.26
24558;BME280;12726;49.148;8.582;2023-07-31T00:51:36;100329.44;;;16.36;82.43
24558;BME280;12726;49.148;8.582;2023-07-31T00:54:21;100335.44;;;16.38;82.27
24558;BME280;12726;49.148;8.582;2023-07-31T00:57:07;100328.94;;;16.39;82.48
24558;BME280;12726;49.148;8.582;2023-07-31T00:59:52;100322.75;;;16.43;82.08
24558;BME280;12726;49.148;8.582;2023-07-31T01:02:38;100331.22;;;16.47;81.30
24558;BME280;12726;49.148;8.582;2023-07-31T01:05:31;100321.38;;;16.41;81.92
24558;BME280;12726;49.148;8.582;2023-07-31T01:08:24;100330.06;;;16.43;81.90
24558;BME280;12726;49.148;8.582;2023-07-31T01:11:15;100333.16;;;16.30;82.77
24558;BME280;12726;49.148;8.582;2023-07-31T01:14:02;100325.97;;;16.19;83.98
24558;BME280;12726;49.148;8.582;2023-07-31T01:16:48;100323.16;;;16.14;84.23
24558;BME280;12726;49.148;8.582;2023-07-31T01:19:33;100322.34;;;16.13;84.69
24558;BME280;12726;49.148;8.582;2023-07-31T01:22:32;100332.13;;;16.14;84.45
24558;BME280;12726;49.148;8.582;2023-07-31T01:25:34;100328.94;;;16.17;84.79
24558;BME280;12726;49.148;8.582;2023-07-31T01:28:28;100324.13;;;16.24;84.06
24558;BME280;12726;49.148;8.582;2023-07-31T01:31:16;100311.97;;;16.27;83.27
24558;BME280;12726;49.148;8.582;2023-07-31T01:34:03;100311.31;;;16.20;83.62
24558;BME280;12726;49.148;8.582;2023-07-31T01:36:48;100301.53;;;16.19;83.94
24558;BME280;12726;49.148;8.582;2023-07-31T01:39:34;100309.97;;;16.22;83.63
24558;BME280;12726;49.148;8.582;2023-07-31T01:42:19;100309.97;;;16.22;83.45
24558;BME280;12726;49.148;8.582;2023-07-31T01:45:07;100310.09;;;16.11;83.90
24558;BME280;12726;49.148;8.582;2023-07-31T01:47:52;100306.75;;;16.03;84.16
24558;BME280;12726;49.148;8.582;2023-07-31T01:50:38;100300.78;;;16.06;83.52
24558;BME280;12726;49.148;8.582;2023-07-31T01:53:23;100287.56;;;16.10;83.02
24558;BME280;12726;49.148;8.582;2023-07-31T01:56:09;100288.19;;;16.17;82.11
24558;BME280;12726;49.148;8.582;2023-07-31T01:58:54;100280.66;;;16.24;82.06
24558;BME280;12726;49.148;8.582;2023-07-31T02:01:41;100281.06;;;16.33;80.80
24558;BME280;12726;49.148;8.582;2023-07-31T02:04:26;100281.88;;;16.33;80.69
24558;BME280;12726;49.148;8.582;2023-07-31T02:07:11;100274.84;;;16.37;79.70
24558;BME280;12726;49.148;8.582;2023-07-31T02:09:57;100271.31;;;16.37;79.55
24558;BME280;12726;49.148;8.582;2023-07-31T02:12:42;100266.50;;;16.22;80.20
24558;BME280;12726;49.148;8.582;2023-07-31T02:15:27;100265.44;;;16.23;80.22
24558;BME280;12726;49.148;8.582;2023-07-31T02:18:14;100267.09;;;16.24;80.31
24558;BME280;12726;49.148;8.582;2023-07-31T02:20:59;100265.94;;;16.20;80.32
24558;BME280;12726;49.148;8.582;2023-07-31T02:23:44;100261.03;;;16.17;80.05
24558;BME280;12726;49.148;8.582;2023-07-31T02:26:30;100256.84;;;16.31;79.81
24558;BME280;12726;49.148;8.582;2023-07-31T02:29:15;100254.72;;;16.33;79.52
24558;BME280;12726;49.148;8.582;2023-07-31T02:32:00;100252.19;;;16.27;79.76
24558;BME280;12726;49.148;8.582;2023-07-31T02:34:47;100254.38;;;16.30;79.44
24558;BME280;12726;49.148;8.582;2023-07-31T02:37:32;100252.25;;;16.32;79.36
24558;BME280;12726;49.148;8.582;2023-07-31T02:40:17;100256.91;;;16.36;79.41
24558;BME280;12726;49.148;8.582;2023-07-31T02:43:02;100247.72;;;16.42;79.16
24558;BME280;12726;49.148;8.582;2023-07-31T02:45:51;100245.84;;;16.43;78.58
24558;BME280;12726;49.148;8.582;2023-07-31T02:48:36;100255.59;;;16.39;79.05
24558;BME280;12726;49.148;8.582;2023-07-31T02:51:23;100252.88;;;16.39;78.53
24558;BME280;12726;49.148;8.582;2023-07-31T02:54:08;100249.94;;;16.45;78.14
24558;BME280;12726;49.148;8.582;2023-07-31T02:56:54;100249.91;;;16.40;78.04
24558;BME280;12726;49.148;8.582;2023-07-31T02:59:39;100246.78;;;16.54;77.13
24558;BME280;12726;49.148;8.582;2023-07-31T03:02:25;100250.81;;;16.51;76.91
24558;BME280;12726;49.148;8.582;2023-07-31T03:05:10;100258.16;;;16.51;76.83
24558;BME280;12726;49.148;8.582;2023-07-31T03:07:57;100248.94;;;16.52;76.83
24558;BME280;12726;49.148;8.582;2023-07-31T03:10:42;100253.88;;;16.55;76.93
24558;BME280;12726;49.148;8.582;2023-07-31T03:13:27;100254.16;;;16.58;76.67
24558;BME280;12726;49.148;8.582;2023-07-31T03:16:13;100247.53;;;16.49;77.05
24558;BME280;12726;49.148;8.582;2023-07-31T03:18:58;100252.75;;;16.56;76.30
24558;BME280;12726;49.148;8.582;2023-07-31T03:21:43;100243.81;;;16.55;76.20
24558;BME280;12726;49.148;8.582;2023-07-31T03:24:30;100252.06;;;16.60;75.83
24558;BME280;12726;49.148;8.582;2023-07-31T03:27:16;100247.91;;;16.58;75.57
24558;BME280;12726;49.148;8.582;2023-07-31T03:30:02;100245.63;;;16.50;76.02
24558;BME280;12726;49.148;8.582;2023-07-31T03:32:47;100251.66;;;16.52;76.09
24558;BME280;12726;49.148;8.582;2023-07-31T03:35:32;100238.84;;;16.47;75.90
24558;BME280;12726;49.148;8.582;2023-07-31T03:38:18;100243.19;;;16.48;75.79
24558;BME280;12726;49.148;8.582;2023-07-31T03:41:04;100249.13;;;16.45;76.43
24558;BME280;12726;49.148;8.582;2023-07-31T03:43:51;100252.47;;;16.52;75.59
24558;BME280;12726;49.148;8.582;2023-07-31T03:46:37;100257.84;;;16.47;76.05
24558;BME280;12726;49.148;8.582;2023-07-31T03:49:22;100253.50;;;16.46;76.03
24558;BME280;12726;49.148;8.582;2023-07-31T03:52:07;100250.78;;;16.46;76.16
24558;BME280;12726;49.148;8.582;2023-07-31T03:54:53;100250.97;;;16.39;76.78
24558;BME280;12726;49.148;8.582;2023-07-31T03:57:39;100250.56;;;16.53;75.38
24558;BME280;12726;49.148;8.582;2023-07-31T04:00:25;100240.81;;;16.57;75.23
24558;BME280;12726;49.148;8.582;2023-07-31T04:03:11;100249.53;;;16.59;75.29
24558;BME280;12726;49.148;8.582;2023-07-31T04:05:56;100258.31;;;16.61;75.14
24558;BME280;12726;49.148;8.582;2023-07-31T04:08:42;100255.38;;;16.67;74.90
24558;BME280;12726;49.148;8.582;2023-07-31T04:11:27;100248.06;;;16.68;75.24
24558;BME280;12726;49.148;8.582;2023-07-31T04:14:16;100249.16;;;16.72;74.17
24558;BME280;12726;49.148;8.582;2023-07-31T04:17:01;100251.69;;;16.78;74.19
24558;BME280;12726;49.148;8.582;2023-07-31T04:19:47;100254.97;;;16.80;74.33
24558;BME280;12726;49.148;8.582;2023-07-31T04:22:32;100255.84;;;16.86;74.20
24558;BME280;12726;49.148;8.582;2023-07-31T04:25:17;100256.16;;;16.90;73.82
24558;BME280;12726;49.148;8.582;2023-07-31T04:28:03;100248.28;;;16.93;72.83
24558;BME280;12726;49.148;8.582;2023-07-31T04:30:50;100248.00;;;16.90;73.19
24558;BME280;12726;49.148;8.582;2023-07-31T04:33:35;100243.16;;;16.97;73.10
24558;BME280;12726;49.148;8.582;2023-07-31T04:36:20;100246.44;;;16.99;72.88
24558;BME280;12726;49.148;8.582;2023-07-31T04:39:05;100239.91;;;17.00;72.73
24558;BME280;12726;49.148;8.582;2023-07-31T04:41:51;100237.72;;;16.97;73.50
24558;BME280;12726;49.148;8.582;2023-07-31T04:44:36;100239.91;;;17.00;72.74
24558;BME280;12726;49.148;8.582;2023-07-31T04:47:23;100235.31;;;17.00;73.28
24558;BME280;12726;49.148;8.582;2023-07-31T04:50:09;100236.13;;;17.01;72.88
24558;BME280;12726;49.148;8.582;2023-07-31T04:52:54;100237.50;;;17.03;73.39
24558;BME280;12726;49.148;8.582;2023-07-31T04:55:40;100246.50;;;17.04;73.75
24558;BME280;12726;49.148;8.582;2023-07-31T04:58:25;100250.91;;;17.10;73.25
24558;BME280;12726;49.148;8.582;2023-07-31T05:01:10;100245.25;;;17.16;72.68
24558;BME280;12726;49.148;8.582;2023-07-31T05:03:59;100241.94;;;17.14;72.61
24558;BME280;12726;49.148;8.582;2023-07-31T05:06:44;100237.66;;;17.18;72.29
24558;BME280;12726;49.148;8.582;2023-07-31T05:09:30;100236.84;;;17.23;72.36
24558;BME280;12726;49.148;8.582;2023-07-31T05:12:15;100232.50;;;17.22;72.79
24558;BME280;12726;49.148;8.582;2023-07-31T05:15:00;100241.00;;;17.31;71.98
24558;BME280;12726;49.148;8.582;2023-07-31T05:17:46;100227.06;;;17.27;73.30
24558;BME280;12726;49.148;8.582;2023-07-31T05:20:33;100237.53;;;17.40;71.84
24558;BME280;12726;49.148;8.582;2023-07-31T05:23:18;100237.09;;;17.53;70.84
24558;BME280;12726;49.148;8.582;2023-07-31T05:26:04;100239.00;;;17.58;71.54
24558;BME280;12726;49.148;8.582;2023-07-31T05:28:49;100228.16;;;17.63;71.06
24558;BME280;12726;49.148;8.582;2023-07-31T05:31:35;100228.47;;;17.67;70.72
24558;BME280;12726;49.148;8.582;2023-07-31T05:34:22;100232.34;;;17.76;71.09
24558;BME280;12726;49.148;8.582;2023-07-31T05:37:10;100229.91;;;17.79;70.22
24558;BME280;12726;49.148;8.582;2023-07-31T05:39:55;100234.03;;;17.82;70.06
24558;BME280;12726;49.148;8.582;2023-07-31T05:42:40;100228.28;;;17.83;70.36
24558;BME280;12726;49.148;8.582;2023-07-31T05:45:25;100238.91;;;17.85;70.80
24558;BME280;12726;49.148;8.582;2023-07-31T05:48:11;100232.97;;;17.93;70.08
24558;BME280;12726;49.148;8.582;2023-07-31T05:50:56;100234.09;;;17.97;69.39
24558;BME280;12726;49.148;8.582;2023-07-31T05:53:43;100236.59;;;18.04;68.97
24558;BME280;12726;49.148;8.582;2023-07-31T05:56:28;100233.56;;;18.05;69.49
24558;BME280;12726;49.148;8.582;2023-07-31T05:59:14;100232.50;;;18.06;69.43
24558;BME280;12726;49.148;8.582;2023-07-31T06:01:59;100231.72;;;18.11;69.51
24558;BME280;12726;49.148;8.582;2023-07-31T06:04:47;100235.78;;;18.13;69.35
24558;BME280;12726;49.148;8.582;2023-07-31T06:07:33;100228.19;;;18.15;70.11
24558;BME280;12726;49.148;8.582;2023-07-31T06:10:21;100232.56;;;18.26;69.11
24558;BME280;12726;49.148;8.582;2023-07-31T06:13:06;100230.66;;;18.27;69.38
24558;BME280;12726;49.148;8.582;2023-07-31T06:15:51;100231.53;;;18.32;69.74
24558;BME280;12726;49.148;8.582;2023-07-31T06:18:38;100235.06;;;18.38;68.25
24558;BME280;12726;49.148;8.582;2023-07-31T06:21:24;100228.53;;;18.44;68.24
24558;BME280;12726;49.148;8.582;2023-07-31T06:24:09;100226.38;;;18.46;68.48
24558;BME280;12726;49.148;8.582;2023-07-31T06:26:57;100229.72;;;18.63;68.43
24558;BME280;12726;49.148;8.582;2023-07-31T06:29:42;100234.38;;;18.78;67.45
24558;BME280;12726;49.148;8.582;2023-07-31T06:32:28;100228.41;;;18.96;68.00
24558;BME280;12726;49.148;8.582;2023-07-31T06:35:13;100226.75;;;19.05;67.60
24558;BME280;12726;49.148;8.582;2023-07-31T06:37:59;100224.59;;;19.17;65.80
24558;BME280;12726;49.148;8.582;2023-07-31T06:40:45;100224.84;;;19.21;66.10
24558;BME280;12726;49.148;8.582;2023-07-31T06:43:34;100217.19;;;19.28;65.04
24558;BME280;12726;49.148;8.582;2023-07-31T06:46:19;100223.75;;;19.32;64.84
24558;BME280;12726;49.148;8.582;2023-07-31T06:49:05;100216.91;;;19.35;65.15
24558;BME280;12726;49.148;8.582;2023-07-31T06:51:52;100209.00;;;19.38;64.49
24558;BME280;12726;49.148;8.582;2023-07-31T06:54:37;100215.03;;;19.50;63.91
24558;BME280;12726;49.148;8.582;2023-07-31T06:57:25;100201.09;;;19.52;64.76
24558;BME280;12726;49.148;8.582;2023-07-31T07:00:13;100202.69;;;19.63;63.81
24558;BME280;12726;49.148;8.582;2023-07-31T07:02:58;100197.22;;;19.68;63.29
24558;BME280;12726;49.148;8.582;2023-07-31T07:05:43;100208.66;;;19.80;63.52
24558;BME280;12726;49.148;8.582;2023-07-31T07:08:29;100207.88;;;19.65;61.90
24558;BME280;12726;49.148;8.582;2023-07-31T07:11:14;100208.44;;;19.57;62.68
24558;BME280;12726;49.148;8.582;2023-07-31T07:14:00;100198.59;;;19.71;64.22
24558;BME280;12726;49.148;8.582;2023-07-31T07:16:50;100201.19;;;20.06;62.17
24558;BME280;12726;49.148;8.582;2023-07-31T07:19:40;100199.44;;;20.30;61.02
24558;BME280;12726;49.148;8.582;2023-07-31T07:22:25;100203.53;;;20.38;61.73
24558;BME280;12726;49.148;8.582;2023-07-31T07:25:11;100198.81;;;20.49;61.03
24558;BME280;12726;49.148;8.582;2023-07-31T07:27:56;100196.53;;;20.61;60.96
24558;BME280;12726;49.148;8.582;2023-07-31T07:30:45;100206.50;;;20.86;60.22
24558;BME280;12726;49.148;8.582;2023-07-31T07:33:31;100199.34;;;20.90;59.99
24558;BME280;12726;49.148;8.582;2023-07-31T07:36:17;100198.34;;;20.76;59.05
24558;BME280;12726;49.148;8.582;2023-07-31T07:39:02;100198.44;;;20.65;59.12
24558;BME280;12726;49.148;8.582;2023-07-31T07:41:47;100194.22;;;20.39;60.32
24558;BME280;12726;49.148;8.582;2023-07-31T07:44:33;100192.09;;;20.21;59.52
24558;BME280;12726;49.148;8.582;2023-07-31T07:47:18;100195.09;;;20.19;60.31
24558;BME280;12726;49.148;8.582;2023-07-31T07:50:06;100181.94;;;20.26;59.51
24558;BME280;12726;49.148;8.582;2023-07-31T07:52:53;100177.72;;;20.54;59.90
24558;BME280;12726;49.148;8.582;2023-07-31T07:55:38;100190.56;;;20.93;58.83
24558;BME280;12726;49.148;8.582;2023-07-31T07:58:23;100187.56;;;20.89;57.28
24558;BME280;12726;49.148;8.582;2023-07-31T08:01:09;100183.19;;;20.93;56.77
24558;BME280;12726;49.148;8.582;2023-07-31T08:03:54;100183.50;;;20.87;57.75
24558;BME280;12726;49.148;8.582;2023-07-31T08:06:41;100193.88;;;20.90;58.41
24558;BME280;12726;49.148;8.582;2023-07-31T08:09:29;100199.59;;;20.93;57.86
24558;BME280;12726;49.148;8.582;2023-07-31T08:12:15;100200.16;;;20.90;58.79
24558;BME280;12726;49.148;8.582;2023-07-31T08:15:00;100194.19;;;20.83;58.17
24558;BME280;12726;49.148;8.582;2023-07-31T08:17:48;100188.00;;;20.67;58.44
24558;BME280;12726;49.148;8.582;2023-07-31T08:20:34;100186.91;;;20.68;59.13
24558;BME280;12726;49.148;8.582;2023-07-31T08:23:21;100180.94;;;20.61;58.64
24558;BME280;12726;49.148;8.582;2023-07-31T08:26:13;100186.03;;;20.78;59.80
24558;BME280;12726;49.148;8.582;2023-07-31T08:29:04;100184.84;;;20.89;58.84
24558;BME280;12726;49.148;8.582;2023-07-31T08:31:49;100168.69;;;20.93;59.04
24558;BME280;12726;49.148;8.582;2023-07-31T08:34:34;100173.38;;;20.87;57.66
24558;BME280;12726;49.148;8.582;2023-07-31T08:37:20;100180.22;;;20.85;59.17
24558;BME280;12726;49.148;8.582;2023-07-31T08:40:10;100169.56;;;20.88;58.41
24558;BME280;12726;49.148;8.582;2023-07-31T08:42:56;100154.13;;;20.97;57.48
24558;BME280;12726;49.148;8.582;2023-07-31T08:45:47;100148.94;;;21.30;56.38
24558;BME280;12726;49.148;8.582;2023-07-31T08:48:33;100143.34;;;21.87;56.98
24558;BME280;12726;49.148;8.582;2023-07-31T08:51:20;100133.16;;;22.12;54.99
24558;BME280;12726;49.148;8.582;2023-07-31T08:54:05;100128.94;;;22.57;53.96
24558;BME280;12726;49.148;8.582;2023-07-31T08:56:52;100133.56;;;23.40;51.72
24558;BME280;12726;49.148;8.582;2023-07-31T08:59:38;100137.69;;;23.56;50.00
24558;BME280;12726;49.148;8.582;2023-07-31T09:02:30;100128.31;;;23.71;49.22
24558;BME280;12726;49.148;8.582;2023-07-31T09:05:17;100122.97;;;23.20;50.19
24558;BME280;12726;49.148;8.582;2023-07-31T09:08:04;100127.06;;;23.36;50.18
24558;BME280;12726;49.148;8.582;2023-07-31T09:10:50;100122.97;;;23.47;50.29
24558;BME280;12726;49.148;8.582;2023-07-31T09:13:37;100118.31;;;23.75;49.97
24558;BME280;12726;49.148;8.582;2023-07-31T09:16:27;100107.28;;;23.20;48.65
24558;BME280;12726;49.148;8.582;2023-07-31T09:19:14;100104.94;;;23.96;48.23
24558;BME280;12726;49.148;8.582;2023-07-31T09:22:09;100087.88;;;23.85;48.60
24558;BME280;12726;49.148;8.582;2023-07-31T09:24:55;100106.38;;;24.07;47.51
24558;BME280;12726;49.148;8.582;2023-07-31T09:27:48;100091.97;;;24.24;48.90
24558;BME280;12726;49.148;8.582;2023-07-31T09:30:45;100098.69;;;24.17;47.96
24558;BME280;12726;49.148;8.582;2023-07-31T09:33:32;100096.34;;;24.25;49.07
24558;BME280;12726;49.148;8.582;2023-07-31T09:36:19;100093.41;;;24.57;47.27
24558;BME280;12726;49.148;8.582;2023-07-31T09:39:04;100097.19;;;24.70;47.02
24558;BME280;12726;49.148;8.582;2023-07-31T09:41:54;100091.13;;;24.59;46.76
24558;BME280;12726;49.148;8.582;2023-07-31T09:44:40;100091.75;;;24.78;46.83
24558;BME280;12726;49.148;8.582;2023-07-31T09:47:27;100085.81;;;25.07;45.27
24558;BME280;12726;49.148;8.582;2023-07-31T09:50:14;100085.25;;;25.76;44.54
24558;BME280;12726;49.148;8.582;2023-07-31T09:53:00;100077.25;;;25.57;43.79
24558;BME280;12726;49.148;8.582;2023-07-31T09:55:45;100074.19;;;25.58;44.78
24558;BME280;12726;49.148;8.582;2023-07-31T09:58:34;100065.22;;;26.27;43.43
24558;BME280;12726;49.148;8.582;2023-07-31T10:01:20;100062.22;;;26.83;42.80
24558;BME280;12726;49.148;8.582;2023-07-31T10:04:07;100058.19;;;25.86;41.87
24558;BME280;12726;49.148;8.582;2023-07-31T10:06:53;100059.44;;;25.63;44.14
24558;BME280;12726;49.148;8.582;2023-07-31T10:09:39;100056.72;;;25.89;43.34
24558;BME280;12726;49.148;8.582;2023-07-31T10:12:26;100064.00;;;25.67;42.50
24558;BME280;12726;49.148;8.582;2023-07-31T10:15:12;100064.72;;;25.42;43.40
24558;BME280;12726;49.148;8.582;2023-07-31T10:18:01;100057.56;;;25.98;45.19
24558;BME280;12726;49.148;8.582;2023-07-31T10:20:49;100068.28;;;26.17;43.16
24558;BME280;12726;49.148;8.582;2023-07-31T10:23:34;100069.56;;;25.85;44.59
24558;BME280;12726;49.148;8.582;2023-07-31T10:26:19;100058.22;;;26.21;42.70
24558;BME280;12726;49.148;8.582;2023-07-31T10:29:07;100062.91;;;26.11;42.32
24558;BME280;12726;49.148;8.582;2023-07-31T10:31:56;100065.53;;;25.51;42.77
24558;BME280;12726;49.148;8.582;2023-07-31T10:34:42;100081.13;;;24.63;45.15
24558;BME280;12726;49.148;8.582;2023-07-31T10:37:30;100071.09;;;24.09;46.49
24558;BME280;12726;49.148;8.582;2023-07-31T10:40:17;100065.25;;;23.88;47.60
24558;BME280;12726;49.148;8.582;2023-07-31T10:43:05;100062.53;;;23.74;47.97
24558;BME280;12726;49.148;8.582;2023-07-31T10:45:53;100058.69;;;23.62;47.80
24558;BME280;12726;49.148;8.582;2023-07-31T10:48:39;100050.22;;;23.31;48.43
24558;BME280;12726;49.148;8.582;2023-07-31T10:51:32;100042.66;;;23.91;48.77
24558;BME280;12726;49.148;8.582;2023-07-31T10:54:19;100044.09;;;24.47;47.28
24558;BME280;12726;49.148;8.582;2023-07-31T10:57:19;100055.78;;;24.30;47.18
24558;BME280;12726;49.148;8.582;2023-07-31T11:00:18;100052.81;;;23.91;47.52
24558;BME280;12726;49.148;8.582;2023-07-31T11:03:06;100048.78;;;23.74;48.80
24558;BME280;12726;49.148;8.582;2023-07-31T11:05:53;100040.56;;;23.61;49.02
24558;BME280;12726;49.148;8.582;2023-07-31T11:08:43;100041.97;;;23.31;48.87
24558;BME280;12726;49.148;8.582;2023-07-31T11:11:30;100026.94;;;23.15;50.56
24558;BME280;12726;49.148;8.582;2023-07-31T11:14:16;100019.81;;;23.14;50.50
24558;BME280;12726;49.148;8.582;2023-07-31T11:17:06;100018.59;;;23.20;49.65
24558;BME280;12726;49.148;8.582;2023-07-31T11:19:51;100018.47;;;23.11;49.64
24558;BME280;12726;49.148;8.582;2023-07-31T11:22:36;100025.91;;;23.11;50.80
24558;BME280;12726;49.148;8.582;2023-07-31T11:25:22;100017.38;;;23.26;50.71
24558;BME280;12726;49.148;8.582;2023-07-31T11:28:11;100026.53;;;23.08;50.89
24558;BME280;12726;49.148;8.582;2023-07-31T11:30:56;100010.09;;;22.75;51.47
24558;BME280;12726;49.148;8.582;2023-07-31T11:33:41;100010.13;;;22.89;51.33
24558;BME280;12726;49.148;8.582;2023-07-31T11:36:26;100007.72;;;23.01;50.79
24558;BME280;12726;49.148;8.582;2023-07-31T11:39:12;100009.53;;;23.19;51.04
24558;BME280;12726;49.148;8.582;2023-07-31T11:41:58;99989.31;;;23.15;51.15
24558;BME280;12726;49.148;8.582;2023-07-31T11:44:45;99997.34;;;23.12;50.24
24558;BME280;12726;49.148;8.582;2023-07-31T11:47:32;99984.69;;;23.24;50.71
24558;BME280;12726;49.148;8.582;2023-07-31T11:50:19;99988.16;;;23.43;50.67
24558;BME280;12726;49.148;8.582;2023-07-31T11:53:07;99986.13;;;23.35;50.27
24558;BME280;12726;49.148;8.582;2023-07-31T11:55:54;99982.88;;;23.33;50.99
24558;BME280;12726;49.148;8.582;2023-07-31T11:58:41;99976.78;;;23.36;51.17
24558;BME280;12726;49.148;8.582;2023-07-31T12:01:29;99983.38;;;23.35;51.16
24558;BME280;12726;49.148;8.582;2023-07-31T12:04:16;99986.16;;;23.49;50.20
24558;BME280;12726;49.148;8.582;2023-07-31T12:07:01;99980.09;;;23.47;50.42
24558;BME280;12726;49.148;8.582;2023-07-31T12:09:53;99989.16;;;23.97;51.34
24558;BME280;12726;49.148;8.582;2023-07-31T12:12:39;99969.38;;;24.31;49.59
24558;BME280;12726;49.148;8.582;2023-07-31T12:15:35;99969.81;;;24.25;48.56
24558;BME280;12726;49.148;8.582;2023-07-31T12:18:23;99962.16;;;24.75;47.13
24558;BME280;12726;49.148;8.582;2023-07-31T12:21:09;99963.97;;;24.48;48.28
24558;BME280;12726;49.148;8.582;2023-07-31T12:23:55;99965.34;;;24.37;48.32
24558;BME280;12726;49.148;8.582;2023-07-31T12:26:45;99949.16;;;24.67;47.28
24558;BME280;12726;49.148;8.582;2023-07-31T12:29:35;99952.88;;;24.93;46.95
24558;BME280;12726;49.148;8.582;2023-07-31T12:32:24;99943.25;;;24.82;47.38
24558;BME280;12726;49.148;8.582;2023-07-31T12:35:14;99944.47;;;24.98;46.44
24558;BME280;12726;49.148;8.582;2023-07-31T12:38:01;99950.25;;;25.45;45.74
24558;BME280;12726;49.148;8.582;2023-07-31T12:40:46;99946.69;;;25.53;45.94
24558;BME280;12726;49.148;8.582;2023-07-31T12:43:34;99945.78;;;25.09;46.68
24558;BME280;12726;49.148;8.582;2023-07-31T12:46:20;99943.78;;;25.58;46.97
24558;BME280;12726;49.148;8.582;2023-07-31T12:49:05;99932.97;;;25.79;46.71
24558;BME280;12726;49.148;8.582;2023-07-31T12:51:52;99931.34;;;25.78;45.53
24558;BME280;12726;49.148;8.582;2023-07-31T12:54:38;99919.63;;;25.89;46.97
24558;BME280;12726;49.148;8.582;2023-07-31T12:57:23;99915.09;;;25.93;44.92
24558;BME280;12726;49.148;8.582;2023-07-31T13:00:09;99920.59;;;25.59;45.82
24558;BME280;12726;49.148;8.582;2023-07-31T13:02:57;99918.16;;;25.49;46.27
24558;BME280;12726;49.148;8.582;2023-07-31T13:05:43;99917.19;;;25.53;47.48
24558;BME280;12726;49.148;8.582;2023-07-31T13:08:29;99899.53;;;25.80;46.84
24558;BME280;12726;49.148;8.582;2023-07-31T13:11:15;99905.69;;;25.68;45.11
24558;BME280;12726;49.148;8.582;2023-07-31T13:14:00;99910.75;;;25.01;46.51
24558;BME280;12726;49.148;8.582;2023-07-31T13:16:45;99903.44;;;24.48;46.98
24558;BME280;12726;49.148;8.582;2023-07-31T13:19:31;99904.50;;;24.16;48.62
24558;BME280;12726;49.148;8.582;2023-07-31T13:22:16;99909.19;;;24.16;49.30
24558;BME280;12726;49.148;8.582;2023-07-31T13:25:04;99907.50;;;24.20;50.45
24558;BME280;12726;49.148;8.582;2023-07-31T13:27:50;99893.50;;;24.16;50.08
24558;BME280;12726;49.148;8.582;2023-07-31T13:30:35;99897.88;;;24.17;49.96
24558;BME280;12726;49.148;8.582;2023-07-31T13:33:20;99899.91;;;24.03;49.57
24558;BME280;12726;49.148;8.582;2023-07-31T13:36:06;99901.53;;;24.04;50.47
24558;BME280;12726;49.148;8.582;2023-07-31T13:38:54;99890.97;;;23.98;50.16
24558;BME280;12726;49.148;8.582;2023-07-31T13:41:41;99896.09;;;24.13;51.93
24558;BME280;12726;49.148;8.582;2023-07-31T13:44:26;99882.97;;;24.32;50.82
24558;BME280;12726;49.148;8.582;2023-07-31T13:47:13;99881.41;;;24.48;49.44
24558;BME280;12726;49.148;8.582;2023-07-31T13:50:01;99874.38;;;24.65;50.00
24558;BME280;12726;49.148;8.582;2023-07-31T13:52:47;99875.06;;;24.79;49.77
24558;BME280;12726;49.148;8.582;2023-07-31T13:55:32;99855.91;;;24.74;48.98
24558;BME280;12726;49.148;8.582;2023-07-31T13:58:20;99872.56;;;24.60;50.08
24558;BME280;12726;49.148;8.582;2023-07-31T14:01:05;99869.97;;;24.24;49.32
24558;BME280;12726;49.148;8.582;2023-07-31T14:03:51;99869.13;;;23.93;50.41
24558;BME280;12726;49.148;8.582;2023-07-31T14:06:36;99863.31;;;23.94;50.68
24558;BME280;12726;49.148;8.582;2023-07-31T14:09:22;99868.63;;;23.91;52.51
24558;BME280;12726;49.148;8.582;2023-07-31T14:12:07;99857.09;;;23.80;52.45
24558;BME280;12726;49.148;8.582;2023-07-31T14:14:54;99869.56;;;23.64;51.76
24558;BME280;12726;49.148;8.582;2023-07-31T14:17:40;99862.91;;;23.42;52.11
24558;BME280;12726;49.148;8.582;2023-07-31T14:20:25;99874.81;;;23.38;53.40
24558;BME280;12726;49.148;8.582;2023-07-31T14:23:11;99863.34;;;23.36;53.52
24558;BME280;12726;49.148;8.582;2023-07-31T14:25:56;99870.97;;;23.25;53.31
24558;BME280;12726;49.148;8.582;2023-07-31T14:28:41;99871.28;;;23.24;54.03
24558;BME280;12726;49.148;8.582;2023-07-31T14:31:28;99860.50;;;23.27;53.66
24558;BME280;12726;49.148;8.582;2023-07-31T14:36:58;99854.75;;;23.15;54.43